Time;durP1;ratioP1;P1;durP2;ratioP2;P2;SDS_P1;SDS_P2;PMS_P1;PMS_P2;Temp;Humidity;BMP_temperature;BMP_pressure;BME280_temperature;BME280_humidity;BME280_pressure;Samples;Min_cycle;Max_cycle;Signal;HPM_P1;HPM_P2
2022/02/06 00:00:37;;;;;;;7.25;2.20;;;;;;;4.88;77.52;100659.94;6310862;22;20065;-95
2022/02/06 00:03:19;;;;;;;8.43;1.80;;;;;;;4.99;76.97;100672.03;6310532;22;20070;-93
2022/02/06 00:06:07;;;;;;;6.47;2.08;;;;;;;4.79;77.72;100638.28;6297120;22;20107;-94
2022/02/06 00:08:38;;;;;;;8.80;2.42;;;;;;;4.78;77.39;100615.56;6309592;22;20015;-93
2022/02/06 00:11:21;;;;;;;9.80;2.65;;;;;;;4.82;77.19;100630.38;6310185;22;20064;-93
2022/02/06 00:14:03;;;;;;;;;;;;;;;;;;;;;
2022/02/06 00:16:39;;;;;;;7.30;1.90;;;;;;;4.94;77.22;100653.72;6309638;22;20094;-94
2022/02/06 00:19:32;;;;;;;;;;;;;;;;;;;;;
2022/02/06 00:22:34;;;;;;;11.80;2.35;;;;;;;4.83;77.17;100625.09;6308139;22;20012;-94
2022/02/06 00:33:43;;;;;;;7.97;2.20;;;;;;;5.15;76.30;100632.31;6306905;22;20019;-94
2022/02/06 00:39:10;;;;;;;7.43;2.05;;;;;;;5.00;77.05;100613.38;6304426;22;20094;-95
2022/02/06 00:41:40;;;;;;;10.63;2.25;;;;;;;5.03;77.09;100611.56;6306644;22;20019;-93
2022/02/06 00:44:13;;;;;;;9.18;1.85;;;;;;;5.02;76.81;100601.97;6305883;22;20493;-95
2022/02/06 00:46:49;;;;;;;6.97;2.05;;;;;;;5.03;77.17;100606.31;6306780;22;20023;-93
2022/02/06 00:49:28;;;;;;;7.15;2.03;;;;;;;4.90;77.15;100592.56;6306642;22;20014;-93
2022/02/06 00:54:41;;;;;;;8.60;2.17;;;;;;;4.97;76.96;100577.56;6303565;22;20601;-94
2022/02/06 00:57:09;;;;;;;7.47;1.88;;;;;;;5.18;76.65;100603.38;6303454;22;20070;-93
2022/02/06 00:59:43;;;;;;;8.95;2.10;;;;;;;5.13;76.70;100589.47;6303828;22;20073;-93
2022/02/06 01:02:24;;;;;;;7.35;2.40;;;;;;;5.04;76.49;100546.78;6303534;22;20011;-94
2022/02/06 01:05:06;;;;;;;7.05;2.05;;;;;;;5.38;76.03;100615.16;6302904;22;20600;-95
2022/02/06 01:07:54;;;;;;;6.05;1.80;;;;;;;5.00;76.37;100543.41;6308263;22;20019;-93
2022/02/06 01:10:24;;;;;;;7.18;2.00;;;;;;;4.99;76.63;100538.19;6306800;22;20000;-93
2022/02/06 01:12:57;;;;;;;6.97;2.00;;;;;;;4.99;76.91;100532.94;6306356;22;20064;-94
2022/02/06 01:15:32;;;;;;;7.82;2.13;;;;;;;4.95;76.84;100534.75;6304709;22;20338;-94
2022/02/06 01:18:09;;;;;;;8.70;2.28;;;;;;;4.96;76.53;100527.75;6305284;22;20026;-93
2022/02/06 01:20:52;;;;;;;;;;;;;;;;;;;;;
2022/02/06 01:23:35;;;;;;;7.43;1.90;;;;;;;5.18;77.00;100560.50;6308567;22;19999;-93
2022/02/06 01:26:28;;;;;;;9.38;2.30;;;;;;;5.12;77.14;100551.00;6308878;22;20015;-94
2022/02/06 01:29:06;;;;;;;11.38;2.63;;;;;;;4.96;77.92;100512.00;6306911;22;20120;-94
2022/02/06 01:34:06;;;;;;;5.97;2.10;;;;;;;5.07;79.81;100537.09;6306579;22;20019;-94
2022/02/06 01:37:04;;;;;;;9.50;2.40;;;;;;;5.00;80.12;100514.53;6307964;22;20023;-94
2022/02/06 01:40:01;;;;;;;9.57;2.30;;;;;;;4.90;80.81;100507.72;6306260;22;20025;-93
2022/02/06 01:42:59;;;;;;;7.95;2.20;;;;;;;4.74;81.01;100493.22;6307742;22;20733;-94
2022/02/06 01:45:31;;;;;;;7.77;1.80;;;;;;;4.90;82.12;100512.97;6307200;22;20477;-93
2022/02/06 02:02:39;;;;;;;9.27;2.60;;;;;;;4.94;82.92;100491.03;6307791;22;20015;-94
2022/02/06 02:16:23;;;;;;;8.80;2.40;;;;;;;4.64;84.05;100440.09;6305494;22;20015;-93
2022/02/06 02:44:02;;;;;;;10.38;3.33;;;;;;;5.10;81.83;100376.91;6309506;22;20017;-94
2022/02/06 02:47:14;;;;;;;9.35;3.00;;;;;;;5.10;80.62;100361.16;6305949;22;20069;-94
2022/02/06 02:49:35;;;;;;;9.35;2.60;;;;;;;5.32;80.39;100368.50;6307621;22;20019;-94
2022/02/06 02:52:17;;;;;;;12.90;2.92;;;;;;;5.23;80.01;100359.97;6308374;22;20091;-95
2022/02/06 02:55:00;;;;;;;12.32;3.58;;;;;;;5.29;79.90;100357.19;6310190;22;20019;-93
2022/02/06 02:58:15;;;;;;;9.15;3.10;;;;;;;5.40;80.17;100369.16;6300337;22;20069;-94
2022/02/06 03:01:52;;;;;;;8.95;3.05;;;;;;;5.54;79.93;100361.78;6316884;22;20063;-93
2022/02/06 03:04:06;;;;;;;11.38;3.17;;;;;;;5.44;79.36;100334.03;6316612;22;20015;-93
2022/02/06 03:06:37;;;;;;;7.88;2.47;;;;;;;5.33;79.57;100305.47;6313119;22;20465;-93
2022/02/06 03:09:06;;;;;;;7.18;2.60;;;;;;;5.47;80.05;100362.84;6312219;22;20019;-93
2022/02/06 03:11:36;;;;;;;9.13;2.50;;;;;;;5.50;80.18;100373.28;6310473;22;20026;-92
2022/02/06 03:14:17;;;;;;;7.30;2.85;;;;;;;5.49;79.65;100368.94;6310635;22;20019;-94
2022/02/06 03:17:03;;;;;;;6.03;2.33;;;;;;;5.39;79.75;100344.66;6309684;22;20022;-93
2022/02/06 03:19:52;;;;;;;9.15;2.90;;;;;;;5.53;79.34;100354.78;6310104;22;20045;-92
2022/02/06 03:22:24;;;;;;;7.05;2.78;;;;;;;5.60;79.51;100361.63;6306775;22;20019;-93
2022/02/06 03:25:05;;;;;;;7.28;2.72;;;;;;;5.65;79.56;100341.34;6305179;22;20672;-92
2022/02/06 03:27:33;;;;;;;7.95;2.72;;;;;;;5.66;79.25;100339.59;6303946;22;20019;-93
2022/02/06 03:30:02;;;;;;;11.10;3.03;;;;;;;5.59;78.53;100317.88;6303709;22;20038;-92
2022/02/06 03:32:29;;;;;;;12.55;2.65;;;;;;;5.76;79.38;100343.66;6305527;22;20098;-92
2022/02/06 03:34:56;;;;;;;7.88;2.60;;;;;;;5.73;79.34;100341.13;6307123;22;20015;-92
2022/02/06 03:37:26;;;;;;;7.28;2.85;;;;;;;5.46;79.10;100279.72;6308131;22;20102;-92
2022/02/06 03:39:56;;;;;;;12.85;3.03;;;;;;;5.58;78.80;100295.13;6308630;22;20026;-93
2022/02/06 03:42:30;;;;;;;9.57;2.60;;;;;;;5.60;78.96;100295.94;6326524;22;20045;-95
2022/02/06 03:45:03;;;;;;;7.50;2.65;;;;;;;5.82;78.70;100336.47;6323419;22;20030;-95
2022/02/06 03:47:49;;;;;;;5.30;2.58;;;;;;;5.50;78.80;100269.09;6324395;22;20015;-91
2022/02/06 03:50:32;;;;;;;6.78;2.30;;;;;;;5.83;78.44;100325.03;6327336;22;20518;-93
2022/02/06 03:52:58;;;;;;;7.13;2.47;;;;;;;5.84;78.14;100321.50;6315244;22;20023;-91
2022/02/06 03:55:27;;;;;;;9.80;2.38;;;;;;;5.78;78.52;100319.06;6309917;22;20026;-91
2022/02/06 03:57:53;;;;;;;8.18;2.60;;;;;;;5.73;78.38;100299.94;6314456;22;20023;-94
2022/02/06 04:00:26;;;;;;;9.77;2.63;;;;;;;5.43;78.66;100249.16;6306475;22;20019;-92
2022/02/06 04:02:53;;;;;;;8.63;2.58;;;;;;;5.37;79.33;100257.19;6308137;22;20073;-93
2022/02/06 04:05:19;;;;;;;7.68;2.55;;;;;;;5.60;79.20;100288.94;6305836;22;20026;-92
2022/02/06 04:07:47;;;;;;;7.10;2.33;;;;;;;5.56;79.43;100283.78;6306797;22;20035;-91
2022/02/06 04:10:16;;;;;;;10.23;2.70;;;;;;;5.58;79.16;100268.84;6304797;22;20012;-92
2022/02/06 04:12:45;;;;;;;10.85;2.67;;;;;;;5.53;79.03;100249.72;6303075;22;20022;-92
2022/02/06 04:15:20;;;;;;;7.60;2.30;;;;;;;5.77;78.81;100270.06;6303099;22;20481;-92
2022/02/06 04:18:05;;;;;;;7.55;2.20;;;;;;;5.64;78.80;100252.94;6305645;22;20011;-91
2022/02/06 04:20:32;;;;;;;10.00;2.72;;;;;;;5.39;79.22;100220.38;6303689;22;20019;-92
2022/02/06 04:23:03;;;;;;;7.20;2.28;;;;;;;5.69;79.51;100264.16;6305161;22;20015;-92
2022/02/06 04:25:32;;;;;;;10.02;2.47;;;;;;;5.46;79.25;100209.69;6302283;22;20019;-94
2022/02/06 04:28:02;;;;;;;10.05;2.40;;;;;;;5.58;79.15;100238.19;6304380;22;20417;-93
2022/02/06 04:30:30;;;;;;;6.50;2.10;;;;;;;5.79;78.87;100246.38;6302043;22;20011;-93
2022/02/06 04:32:56;;;;;;;4.93;2.13;;;;;;;5.68;78.66;100236.16;6305102;22;20206;-93
2022/02/06 04:35:30;;;;;;;7.95;2.25;;;;;;;5.76;79.17;100244.69;6304082;22;20021;-93
2022/02/06 04:38:09;;;;;;;6.97;2.15;;;;;;;5.61;79.08;100221.50;6305754;22;20091;-92
2022/02/06 04:54:10;;;;;;;6.18;1.75;;;;;;;5.91;78.55;100231.13;6304613;22;20049;-92
2022/02/06 05:19:13;;;;;;;7.75;2.17;;;;;;;5.65;77.33;100144.31;6305583;22;20023;-91
2022/02/06 05:34:14;;;;;;;6.32;1.98;;;;;;;6.04;77.17;100176.41;6301899;22;20023;-91
2022/02/06 05:36:41;;;;;;;12.00;2.20;;;;;;;6.05;77.32;100193.03;6301576;22;20023;-92
2022/02/06 05:39:07;;;;;;;7.60;2.08;;;;;;;5.74;76.71;100117.75;6304717;22;20377;-92
2022/02/06 05:41:38;;;;;;;8.82;1.75;;;;;;;5.86;77.08;100143.63;6305532;22;20098;-92
2022/02/06 05:44:06;;;;;;;6.22;1.77;;;;;;;5.93;77.02;100166.22;6304474;22;20023;-92
2022/02/06 05:46:33;;;;;;;10.90;2.28;;;;;;;5.86;77.33;100138.38;6302409;22;20025;-93
2022/02/06 05:49:00;;;;;;;5.72;1.83;;;;;;;5.75;77.19;100103.72;6303862;22;20019;-90
2022/02/06 05:51:28;;;;;;;9.20;2.08;;;;;;;5.91;77.35;100138.28;6302487;22;20021;-91
2022/02/06 05:53:56;;;;;;;7.20;2.08;;;;;;;5.86;77.15;100138.38;6304554;22;20045;-93
2022/02/06 05:56:24;;;;;;;9.45;2.20;;;;;;;5.99;77.30;100138.88;6303173;22;20050;-92
2022/02/06 05:58:53;;;;;;;6.13;2.15;;;;;;;5.98;77.11;100138.00;6302027;22;20045;-92
2022/02/06 06:01:19;;;;;;;7.97;1.98;;;;;;;5.98;76.79;100124.88;6301661;22;20043;-92
2022/02/06 06:03:46;;;;;;;7.82;1.95;;;;;;;6.04;77.09;100138.72;6300862;22;20065;-93
2022/02/06 06:06:17;;;;;;;5.93;2.05;;;;;;;6.01;76.67;100121.28;6299982;22;20019;-92
2022/02/06 06:08:44;;;;;;;5.32;2.10;;;;;;;5.84;76.96;100098.16;6303238;22;20015;-91
2022/02/06 06:11:11;;;;;;;8.70;2.20;;;;;;;5.94;76.98;100115.38;6304130;22;20027;-91
2022/02/06 06:13:38;;;;;;;5.55;1.85;;;;;;;6.06;77.54;100122.00;6306854;22;20019;-92
2022/02/06 06:16:08;;;;;;;9.23;2.35;;;;;;;5.83;77.48;100078.03;6304658;22;20094;-91
2022/02/06 06:18:35;;;;;;;8.90;2.15;;;;;;;5.83;77.48;100062.28;6306717;22;20021;-94
2022/02/06 06:21:04;;;;;;;6.05;1.70;;;;;;;5.83;77.54;100088.53;6303876;22;20039;-92
2022/02/06 06:23:34;;;;;;;4.38;1.73;;;;;;;5.96;77.89;100116.19;6306949;22;20411;-90
2022/02/06 06:26:01;;;;;;;8.75;2.00;;;;;;;6.07;77.97;100125.50;6304389;22;20022;-92
2022/02/06 06:28:28;;;;;;;4.72;1.70;;;;;;;6.06;78.09;100132.53;6305454;22;20098;-93
2022/02/06 06:30:55;;;;;;;7.97;1.77;;;;;;;6.20;78.10;100153.97;6306807;22;20019;-92
2022/02/06 06:33:22;;;;;;;3.80;1.55;;;;;;;6.05;78.25;100095.78;6307265;22;20021;-92
2022/02/06 06:35:59;;;;;;;6.90;2.13;;;;;;;5.89;77.73;100071.75;6305612;22;20026;-92
2022/02/06 06:38:27;;;;;;;9.10;2.50;;;;;;;5.96;78.24;100078.56;6307605;22;20030;-91
2022/02/06 06:40:56;;;;;;;7.05;1.88;;;;;;;6.08;78.57;100095.69;6306874;22;20335;-92
2022/02/06 06:43:24;;;;;;;6.13;1.80;;;;;;;6.10;78.36;100067.56;6307735;22;20003;-90
2022/02/06 06:45:52;;;;;;;5.88;1.60;;;;;;;5.82;78.43;100031.69;6304981;22;20363;-92
2022/02/06 06:48:19;;;;;;;7.10;1.40;;;;;;;5.90;78.86;100055.09;6304791;22;20051;-93
2022/02/06 06:50:46;;;;;;;9.10;2.13;;;;;;;5.95;79.40;100055.81;6306254;22;20015;-91
2022/02/06 06:53:14;;;;;;;7.78;1.70;;;;;;;5.86;79.47;100048.19;6306960;22;20021;-92
2022/02/06 06:55:44;;;;;;;6.30;1.77;;;;;;;6.00;79.17;100072.25;6303996;22;20027;-93
2022/02/06 06:58:17;;;;;;;10.23;2.30;;;;;;;5.95;78.97;100035.63;6302243;22;20824;-92
2022/02/06 07:03:31;;;;;;;9.05;2.00;;;;;;;6.11;78.95;100058.78;6303983;22;20023;-93
2022/02/06 07:06:01;;;;;;;7.82;1.83;;;;;;;6.12;78.51;100053.47;6302802;22;20012;-92
2022/02/06 07:08:30;;;;;;;5.07;1.80;;;;;;;5.94;78.08;100012.03;6303258;22;20011;-92
2022/02/06 07:10:57;;;;;;;8.65;1.83;;;;;;;6.07;78.20;100036.13;6306249;22;20023;-90
2022/02/06 07:13:27;;;;;;;7.60;1.67;;;;;;;5.83;78.48;99996.59;6306758;22;20018;-92
2022/02/06 07:15:58;;;;;;;5.93;1.60;;;;;;;5.87;78.12;99990.31;6304718;22;20373;-93
2022/02/06 07:18:27;;;;;;;7.68;1.70;;;;;;;6.10;78.25;100009.75;6303323;22;20026;-91
2022/02/06 07:20:57;;;;;;;7.05;1.70;;;;;;;6.03;78.20;100016.09;6302619;22;20019;-92
2022/02/06 07:23:24;;;;;;;11.45;1.70;;;;;;;6.19;78.26;100033.94;6305067;22;20076;-94
2022/02/06 07:25:59;;;;;;;6.38;1.30;;;;;;;6.06;78.53;100019.50;6305383;22;20015;-93
2022/02/06 07:28:30;;;;;;;4.30;1.50;;;;;;;5.89;78.37;99975.41;6303790;22;20094;-93
2022/02/06 07:31:01;;;;;;;7.75;1.98;;;;;;;5.92;78.79;99987.56;6305697;22;20023;-93
2022/02/06 07:33:29;;;;;;;7.25;1.55;;;;;;;6.09;78.42;100008.88;6306509;22;20019;-93
2022/02/06 07:35:56;;;;;;;4.43;1.48;;;;;;;6.10;79.13;100007.09;6307054;22;20074;-94
2022/02/06 07:38:23;;;;;;;4.75;1.50;;;;;;;5.97;79.04;99978.63;6306912;22;20015;-93
2022/02/06 07:40:53;;;;;;;7.60;1.75;;;;;;;5.95;79.42;99969.94;6308168;22;20026;-93
2022/02/06 07:43:22;;;;;;;8.27;1.85;;;;;;;5.95;78.89;99963.81;6284657;22;20072;-93
2022/02/06 07:45:48;;;;;;;8.52;1.70;;;;;;;6.06;78.80;99966.91;6305489;22;20427;-91
2022/02/06 07:48:17;;;;;;;7.25;1.38;;;;;;;6.28;78.21;99995.94;6306206;22;20038;-95
2022/02/06 07:50:45;;;;;;;9.98;2.05;;;;;;;6.21;78.23;99978.66;6305314;22;20015;-94
2022/02/06 07:53:18;;;;;;;9.23;2.08;;;;;;;6.25;78.54;100002.16;6303988;22;20019;-91
2022/02/06 07:55:49;;;;;;;7.82;1.95;;;;;;;5.95;78.43;99958.56;6309298;22;20026;-94
2022/02/06 07:58:17;;;;;;;6.93;1.90;;;;;;;6.37;77.94;100021.91;6322687;22;20580;-91
2022/02/06 08:00:46;;;;;;;8.77;1.95;;;;;;;6.37;77.70;100019.28;6326735;22;20038;-93
2022/02/06 08:03:16;;;;;;;10.07;1.48;;;;;;;6.37;77.69;100019.28;6320456;22;20077;-92
2022/02/06 08:05:47;;;;;;;5.93;1.40;;;;;;;6.43;77.39;100018.22;6309499;22;20076;-93
2022/02/06 08:08:15;;;;;;;5.03;1.58;;;;;;;6.40;77.51;100011.28;6310087;22;20368;-92
2022/02/06 08:10:43;;;;;;;8.52;1.48;;;;;;;6.13;77.19;99954.44;6309919;22;20023;-92
2022/02/06 08:13:20;;;;;;;6.80;1.55;;;;;;;6.05;77.20;99932.81;6309293;22;20022;-92
2022/02/06 08:15:50;;;;;;;9.68;2.00;;;;;;;6.40;77.52;99997.28;6308861;22;20011;-93
2022/02/06 08:18:19;;;;;;;9.77;1.60;;;;;;;6.09;78.23;99929.16;6310240;22;20027;-94
2022/02/06 08:20:52;;;;;;;6.35;1.80;;;;;;;6.24;80.01;99995.19;6310645;22;20080;-94
2022/02/06 08:23:44;;;;;;;9.70;2.00;;;;;;;5.77;82.43;99970.53;6311665;22;20073;-93
2022/02/06 08:26:14;;;;;;;5.72;1.63;;;;;;;5.54;84.02;99936.28;6309271;22;20011;-93
2022/02/06 08:29:01;;;;;;;7.70;1.90;;;;;;;5.49;86.53;99959.25;6314016;22;20438;-92
2022/02/06 08:41:06;;;;;;;4.50;2.20;;;;;;;5.38;91.75;99962.19;6325582;22;20015;-90
2022/02/06 08:43:33;;;;;;;4.60;1.77;;;;;;;5.28;92.12;99945.91;6316113;22;20042;-91
2022/02/06 08:46:24;;;;;;;7.45;1.67;;;;;;;5.11;90.55;99898.34;6308021;22;20018;-94
2022/02/06 08:49:15;;;;;;;10.20;2.08;;;;;;;5.46;90.59;99954.94;6310160;22;20019;-96
2022/02/06 08:51:42;;;;;;;4.88;1.90;;;;;;;5.11;91.58;99887.84;6301762;22;20021;-91
2022/02/06 08:54:10;;;;;;;4.95;1.67;;;;;;;5.12;92.08;99871.19;6302688;22;20072;-91
2022/02/06 08:56:40;;;;;;;5.57;1.50;;;;;;;5.17;93.10;99890.28;6305107;22;20034;-92
2022/02/06 08:59:10;;;;;;;4.30;1.77;;;;;;;5.11;94.30;99895.72;6307089;22;20026;-96
2022/02/06 09:01:41;;;;;;;8.00;2.03;;;;;;;5.12;94.50;99873.81;6313660;22;20034;-93
2022/02/06 09:04:08;;;;;;;9.18;2.13;;;;;;;5.08;95.30;99882.69;6311034;22;20076;-93
2022/02/06 09:06:36;;;;;;;7.55;1.88;;;;;;;4.98;96.82;99881.28;6305289;22;20213;-92
2022/02/06 09:09:05;;;;;;;6.60;1.90;;;;;;;4.94;96.14;99864.78;6305738;22;20019;-91
2022/02/06 09:11:32;;;;;;;4.88;1.65;;;;;;;5.04;97.06;99875.81;6304972;22;20023;-93
2022/02/06 09:14:00;;;;;;;2.80;1.50;;;;;;;5.10;96.03;99875.63;6304734;22;20023;-91
2022/02/06 09:16:26;;;;;;;10.57;2.05;;;;;;;5.03;95.51;99844.41;6305468;22;20085;-91
2022/02/06 09:18:55;;;;;;;6.20;1.65;;;;;;;5.27;95.98;99883.81;6304982;22;20379;-90
2022/02/06 09:21:24;;;;;;;6.13;1.40;;;;;;;5.08;97.38;99853.81;6304283;22;20499;-92
2022/02/06 09:23:55;;;;;;;2.83;1.38;;;;;;;5.13;98.50;99861.56;6303235;22;20200;-93
2022/02/06 09:26:22;;;;;;;5.00;1.33;;;;;;;5.16;97.27;99835.22;6309495;22;20323;-92
2022/02/06 09:28:49;;;;;;;7.30;1.80;;;;;;;5.14;98.61;99840.50;6310538;22;20502;-92
2022/02/06 09:31:24;;;;;;;5.63;1.60;;;;;;;5.24;97.38;99828.78;6309000;22;20019;-92
2022/02/06 09:36:17;;;;;;;7.40;1.50;;;;;;;4.96;98.02;99774.66;6307035;22;20026;-93
2022/02/06 09:38:44;;;;;;;6.78;1.50;;;;;;;5.00;96.86;99790.25;6304873;22;20015;-91
2022/02/06 09:41:21;;;;;;;4.88;1.27;;;;;;;5.17;97.46;99811.53;6308155;22;20094;-92
2022/02/06 09:43:48;;;;;;;3.67;1.38;;;;;;;5.17;96.49;99789.69;6309150;22;20027;-92
2022/02/06 09:46:21;;;;;;;2.55;1.40;;;;;;;5.09;95.17;99766.31;6309181;22;20011;-93
2022/02/06 09:48:55;;;;;;;4.32;1.27;;;;;;;5.29;96.17;99784.84;6306392;22;20064;-91
2022/02/06 09:51:28;;;;;;;2.78;1.30;;;;;;;5.08;98.52;99758.50;6308592;22;20015;-93
2022/02/06 09:53:55;;;;;;;6.00;2.00;;;;;;;5.23;96.84;99789.44;6306461;22;20072;-91
2022/02/06 09:56:23;;;;;;;3.78;1.50;;;;;;;5.23;96.72;99769.31;6306112;22;20015;-93
2022/02/06 09:59:04;;;;;;;6.13;1.75;;;;;;;5.05;97.45;99730.59;6306780;22;20019;-90
2022/02/06 10:01:39;;;;;;;7.45;1.95;;;;;;;5.03;99.62;99747.31;6308183;22;20019;-91
2022/02/06 10:04:10;;;;;;;8.30;1.83;;;;;;;5.02;99.26;99751.72;6306312;22;20015;-94
2022/02/06 10:07:13;;;;;;;4.50;1.88;;;;;;;5.32;100.00;99783.91;6303549;22;20065;-91
2022/02/06 10:09:45;;;;;;;4.13;1.50;;;;;;;5.12;97.90;99731.25;6305135;22;20073;-92
2022/02/06 10:12:21;;;;;;;5.55;1.80;;;;;;;5.20;99.42;99763.31;6302787;22;20015;-92
2022/02/06 10:14:51;;;;;;;5.93;1.90;;;;;;;5.14;100.00;99758.28;6308939;22;20498;-93
2022/02/06 10:17:25;;;;;;;5.05;1.80;;;;;;;5.32;100.00;99751.53;6308525;22;20023;-91
2022/02/06 10:19:54;;;;;;;4.97;1.70;;;;;;;5.08;100.00;99722.59;6308102;22;20015;-92
2022/02/06 10:22:26;;;;;;;6.13;1.90;;;;;;;5.25;100.00;99748.25;6308519;22;20019;-92
2022/02/06 10:25:06;;;;;;;8.15;1.60;;;;;;;5.30;100.00;99780.47;6308701;22;20634;-91
2022/02/06 10:27:46;;;;;;;3.20;1.60;;;;;;;5.10;100.00;99746.19;6302694;22;20098;-92
2022/02/06 10:30:37;;;;;;;3.20;1.63;;;;;;;5.26;100.00;99748.22;6303193;22;20045;-93
2022/02/06 10:33:11;;;;;;;;;;;;;;;5.35;100.00;99751.44;6304557;22;20438;-92
2022/02/06 10:35:46;;;;;;;7.75;1.83;;;;;;;5.32;100.00;99748.91;6305518;22;19965;-92
2022/02/06 10:38:19;;;;;;;3.60;1.65;;;;;;;5.32;100.00;99747.16;6306879;22;20339;-91
2022/02/06 10:41:18;;;;;;;5.40;1.73;;;;;;;5.22;100.00;99717.72;6305911;22;20106;-91
2022/02/06 10:44:10;;;;;;;5.03;1.80;;;;;;;5.24;100.00;99717.66;6305160;22;20027;-91
2022/02/06 10:46:54;;;;;;;4.88;1.67;;;;;;;5.31;100.00;99713.06;6308860;22;20021;-92
2022/02/06 10:49:23;;;;;;;3.85;1.75;;;;;;;5.21;100.00;99687.13;6311016;22;20311;-91
2022/02/06 10:52:01;;;;;;;3.75;1.73;;;;;;;5.27;100.00;99684.28;6311591;22;20037;-94
2022/02/06 10:54:31;;;;;;;2.75;1.40;;;;;;;5.34;100.00;99690.19;6308186;22;20019;-92
2022/02/06 10:57:06;;;;;;;3.58;1.67;;;;;;;5.41;100.00;99690.81;6308800;22;20012;-94
2022/02/06 10:59:45;;;;;;;7.22;2.30;;;;;;;5.16;100.00;99633.97;6306676;22;20016;-94
2022/02/06 11:02:34;;;;;;;4.97;2.03;;;;;;;5.45;100.00;99653.88;6308509;22;20023;-92
2022/02/06 11:05:19;;;;;;;4.60;2.15;;;;;;;5.27;100.00;99607.31;6308980;22;20067;-92
2022/02/06 11:07:56;;;;;;;8.10;1.90;;;;;;;5.32;100.00;99607.16;6314081;22;20091;-93
2022/02/06 11:10:30;;;;;;;7.72;2.00;;;;;;;5.34;100.00;99597.44;6306663;22;20015;-93
2022/02/06 11:13:07;;;;;;;6.38;2.13;;;;;;;5.64;100.00;99627.78;6305632;22;20089;-93
2022/02/06 11:15:40;;;;;;;6.53;1.77;;;;;;;5.65;100.00;99616.34;6305329;22;20076;-93
2022/02/06 11:18:14;;;;;;;3.00;1.63;;;;;;;5.66;100.00;99618.06;6303766;22;20075;-93
2022/02/06 11:21:02;;;;;;;3.78;1.58;;;;;;;5.39;100.00;99570.09;6279921;22;20417;-93
2022/02/06 11:23:55;;;;;;;4.90;1.48;;;;;;;5.43;100.00;99555.06;6304749;22;20069;-93
2022/02/06 11:26:33;;;;;;;4.65;1.85;;;;;;;5.64;100.00;99597.13;6307580;22;20011;-92
2022/02/06 11:29:09;;;;;;;5.40;1.67;;;;;;;5.46;100.00;99571.56;6304812;22;20082;-93
2022/02/06 11:31:57;;;;;;;;;;;;;;;;;;;;;
2022/02/06 11:34:30;;;;;;;5.13;1.80;;;;;;;5.22;100.00;99534.00;6303522;22;20034;-93
2022/02/06 11:46:04;;;;;;;2.47;1.13;;;;;;;5.41;100.00;99549.03;6304467;22;20015;-92
2022/02/06 11:48:34;;;;;;;2.75;1.25;;;;;;;5.13;100.00;99502.00;6304516;22;20023;-92
2022/02/06 11:51:01;;;;;;;2.67;1.30;;;;;;;5.37;100.00;99545.66;6306780;22;20056;-91
2022/02/06 11:53:37;;;;;;;3.58;1.25;;;;;;;5.13;100.00;99475.75;6306653;22;20018;-92
2022/02/06 11:56:33;;;;;;;1.83;1.02;;;;;;;5.18;100.00;99518.44;6309822;22;20076;-92
2022/02/06 11:59:07;;;;;;;2.03;1.10;;;;;;;5.23;100.00;99514.69;6305021;22;20011;-92
2022/02/06 12:01:42;;;;;;;2.50;1.10;;;;;;;4.97;100.00;99461.53;6305548;22;20072;-92
2022/02/06 12:04:28;;;;;;;6.97;1.77;;;;;;;5.15;100.00;99482.66;6306987;22;20099;-93
2022/02/06 12:06:57;;;;;;;2.97;1.30;;;;;;;4.96;100.00;99444.09;6315466;22;20088;-91
2022/02/06 12:09:31;;;;;;;3.75;0.80;;;;;;;5.17;100.00;99485.25;6313440;22;20082;-93
2022/02/06 12:12:04;;;;;;;2.25;1.08;;;;;;;5.19;100.00;99492.13;6310030;22;20047;-93
2022/02/06 12:14:40;;;;;;;1.55;0.80;;;;;;;4.90;100.00;99442.53;6306459;22;20038;-93
2022/02/06 12:17:43;;;;;;;3.47;1.00;;;;;;;4.98;100.00;99444.88;6309431;22;20019;-92
2022/02/06 12:20:18;;;;;;;2.22;1.10;;;;;;;4.83;100.00;99427.97;6308828;22;20037;-93
2022/02/06 12:22:52;;;;;;;1.85;0.90;;;;;;;4.77;100.00;99405.44;6308759;22;20033;-93
2022/02/06 12:28:26;;;;;;;2.30;1.10;;;;;;;4.97;100.00;99420.41;6303677;22;20080;-92
2022/02/06 12:31:23;;;;;;;1.75;0.90;;;;;;;5.16;100.00;99429.28;6305457;22;20411;-93
2022/02/06 12:39:32;;;;;;;3.40;0.63;;;;;;;5.14;100.00;99401.38;6308238;22;20391;-95
2022/02/06 12:42:04;;;;;;;0.85;0.57;;;;;;;5.08;100.00;99385.88;6307282;22;20020;-93
2022/02/06 12:44:35;;;;;;;1.63;0.50;;;;;;;5.21;100.00;99393.16;6305737;22;20077;-95
2022/02/06 12:47:11;;;;;;;1.60;0.60;;;;;;;4.93;100.00;99337.50;6311614;22;20011;-93
2022/02/06 12:49:41;;;;;;;1.13;0.50;;;;;;;4.86;100.00;99333.44;6310136;22;20023;-93
2022/02/06 12:52:15;;;;;;;1.90;0.90;;;;;;;4.94;100.00;99332.19;6314360;22;20152;-94
2022/02/06 12:54:51;;;;;;;0.68;0.50;;;;;;;4.92;100.00;99318.28;6318471;22;20029;-94
2022/02/06 12:57:20;;;;;;;2.13;0.77;;;;;;;4.95;100.00;99343.53;6325259;22;20049;-92
2022/02/06 12:59:50;;;;;;;0.65;0.43;;;;;;;4.83;100.00;99302.06;6319622;22;20538;-96
2022/02/06 13:02:53;;;;;;;1.17;0.50;;;;;;;4.95;100.00;99317.31;6321470;22;20019;-95
2022/02/06 13:05:26;;;;;;;1.27;0.60;;;;;;;5.04;100.00;99322.16;6315727;22;20023;-93
2022/02/06 13:08:02;;;;;;;1.23;0.57;;;;;;;4.86;100.00;99289.69;6312963;22;20048;-94
2022/02/06 13:10:33;;;;;;;1.08;0.52;;;;;;;4.98;100.00;99303.22;6325964;22;20011;-92
2022/02/06 13:13:06;;;;;;;1.35;0.40;;;;;;;4.87;100.00;99278.28;6326143;22;20087;-94
2022/02/06 13:15:58;;;;;;;3.75;0.90;;;;;;;4.74;100.00;99242.97;6317540;22;20041;-90
2022/02/06 13:26:38;;;;;;;0.93;0.50;;;;;;;4.93;100.00;99267.53;6309805;22;20016;-92
2022/02/06 13:29:32;;;;;;;0.90;0.70;;;;;;;4.73;100.00;99208.94;6309452;22;20042;-94
2022/02/06 13:32:19;;;;;;;0.70;0.50;;;;;;;5.06;100.00;99277.50;6308991;22;20016;-91
2022/02/06 13:35:18;;;;;;;0.60;0.40;;;;;;;4.79;100.00;99209.53;6307823;22;20023;-93
2022/02/06 13:37:57;;;;;;;0.60;0.30;;;;;;;4.85;100.00;99232.91;6309414;22;20015;-91
2022/02/06 13:40:33;;;;;;;0.77;0.52;;;;;;;4.86;100.00;99221.50;6309138;22;20218;-91
2022/02/06 13:43:02;;;;;;;1.08;0.50;;;;;;;5.03;100.00;99233.03;6307455;22;20031;-92
2022/02/06 13:45:41;;;;;;;1.40;0.30;;;;;;;5.06;100.00;99219.78;6307608;22;20062;-92
2022/02/06 13:48:24;;;;;;;0.50;0.50;;;;;;;4.96;100.00;99207.97;6308249;22;20071;-91
2022/02/06 13:50:58;;;;;;;0.80;0.55;;;;;;;4.90;100.00;99202.06;6308749;22;20019;-92
2022/02/06 13:53:28;;;;;;;1.45;0.60;;;;;;;4.86;100.00;99184.78;6305737;22;20442;-92
2022/02/06 13:56:06;;;;;;;1.10;0.50;;;;;;;4.95;100.00;99215.00;6306845;22;20098;-93
2022/02/06 13:58:35;;;;;;;0.50;0.50;;;;;;;4.80;100.00;99171.06;6310695;22;20015;-93
2022/02/06 14:01:07;;;;;;;0.95;0.30;;;;;;;4.92;100.00;99183.63;6307845;22;20035;-92
2022/02/06 14:03:52;;;;;;;2.90;0.50;;;;;;;4.99;100.00;99182.47;6307303;22;20023;-91
2022/02/06 14:06:32;;;;;;;1.35;0.50;;;;;;;4.99;100.00;99182.47;6308088;22;20073;-93
2022/02/06 14:09:25;;;;;;;1.13;0.50;;;;;;;5.18;100.00;99183.38;6309868;22;20050;-92
2022/02/06 14:12:25;;;;;;;1.25;0.70;;;;;;;5.19;100.00;99173.72;6315892;22;20498;-90
2022/02/06 14:15:02;;;;;;;1.05;0.63;;;;;;;5.18;100.00;99165.00;6291987;22;20019;-91
2022/02/06 14:17:42;;;;;;;0.38;0.30;;;;;;;5.24;100.00;99204.06;6311955;22;20061;-93
2022/02/06 14:20:14;;;;;;;0.95;0.50;;;;;;;5.24;100.00;99177.84;6312765;22;20050;-92
2022/02/06 14:23:04;;;;;;;1.08;0.50;;;;;;;5.27;100.00;99171.59;6309475;22;20430;-92
2022/02/06 14:25:35;;;;;;;1.52;0.47;;;;;;;5.24;100.00;99154.22;6311142;22;20046;-93
2022/02/06 14:28:19;;;;;;;1.02;0.93;;;;;;;5.30;100.00;99163.59;6312586;22;20042;-94
2022/02/06 14:30:49;;;;;;;2.30;0.70;;;;;;;5.28;100.00;99162.81;6316684;22;20046;-93
2022/02/06 14:33:23;;;;;;;0.60;0.40;;;;;;;5.10;100.00;99130.38;6319398;22;20011;-92
2022/02/06 14:35:54;;;;;;;1.23;0.55;;;;;;;4.88;100.00;99095.50;6317537;22;20019;-93
2022/02/06 14:38:57;;;;;;;1.08;0.50;;;;;;;5.03;100.00;99134.19;6317278;22;20023;-92
2022/02/06 14:41:48;;;;;;;1.83;0.60;;;;;;;5.07;100.00;99135.75;6321111;22;20075;-92
2022/02/06 14:44:25;;;;;;;0.68;0.45;;;;;;;4.89;100.00;99100.69;6364665;22;20044;-91
2022/02/06 14:47:19;;;;;;;1.13;0.50;;;;;;;4.93;100.00;99081.28;6313901;22;20026;-90
2022/02/06 14:49:47;;;;;;;0.57;0.40;;;;;;;5.10;100.00;99121.63;6346548;22;20041;-91
2022/02/06 14:52:14;;;;;;;0.85;0.30;;;;;;;5.02;100.00;99084.41;6343075;22;20089;-91